createdAt,value
2018-06-25T00:00:59.563Z,24.66
2018-06-25T00:03:36.676Z,24.74
2018-06-25T00:09:14.208Z,24.75
2018-06-25T00:11:55.323Z,24.86
2018-06-25T00:14:39.838Z,25.00
2018-06-25T00:17:26.097Z,25.05
2018-06-25T00:20:10.897Z,25.11
2018-06-25T00:22:51.565Z,25.16
2018-06-25T00:25:45.299Z,25.15
2018-06-25T00:32:52.734Z,25.29
2018-06-25T00:35:39.758Z,25.10
2018-06-25T00:38:15.427Z,25.07
2018-06-25T00:40:57.882Z,25.17
2018-06-25T00:43:51.010Z,24.84
2018-06-25T00:46:25.001Z,25.22
2018-06-25T00:48:59.030Z,24.89
2018-06-25T00:51:30.979Z,24.97
2018-06-25T00:54:03.019Z,24.73
2018-06-25T00:56:38.913Z,24.84
2018-06-25T00:59:25.263Z,24.73
2018-06-25T01:04:47.873Z,24.86
2018-06-25T01:07:22.229Z,24.82
2018-06-25T01:09:58.569Z,24.67
2018-06-25T01:12:35.826Z,24.58
2018-06-25T01:15:17.837Z,24.72
2018-06-25T01:17:50.549Z,24.68
2018-06-25T01:20:25.772Z,24.73
2018-06-25T01:23:03.071Z,24.18
2018-06-25T01:25:35.717Z,24.66
2018-06-25T01:30:55.985Z,24.28
2018-06-25T01:36:30.756Z,24.34
2018-06-25T01:39:04.292Z,24.42
2018-06-25T01:41:45.804Z,24.26
2018-06-25T01:44:22.448Z,24.27
2018-06-25T01:46:56.735Z,24.25
2018-06-25T01:49:31.287Z,24.20
2018-06-25T01:52:05.588Z,24.06
2018-06-25T01:54:42.723Z,23.80
2018-06-25T01:57:17.309Z,23.71
2018-06-25T01:59:53.785Z,23.86
2018-06-25T02:02:31.482Z,23.83
2018-06-25T02:05:06.316Z,23.75
2018-06-25T02:07:38.878Z,23.60
2018-06-25T02:10:11.807Z,23.54
2018-06-25T02:12:45.483Z,23.59
2018-06-25T02:15:19.274Z,24.04
2018-06-25T02:17:53.191Z,23.96
2018-06-25T02:20:27.980Z,24.20
2018-06-25T02:26:54.722Z,23.78
2018-06-25T02:29:29.414Z,23.88
2018-06-25T02:32:01.820Z,24.14
2018-06-25T02:34:35.539Z,23.94
2018-06-25T02:37:13.308Z,23.54
2018-06-25T02:39:48.299Z,23.54
2018-06-25T02:42:21.993Z,23.71
2018-06-25T02:44:56.649Z,23.65
2018-06-25T02:47:33.276Z,23.59
2018-06-25T02:50:12.780Z,23.75
2018-06-25T02:52:52.318Z,23.10
2018-06-25T02:55:29.597Z,23.65
2018-06-25T02:58:05.875Z,23.53
2018-06-25T03:00:41.937Z,23.57
2018-06-25T03:03:15.799Z,23.55
2018-06-25T03:05:50.798Z,23.31
2018-06-25T03:08:23.791Z,23.56
2018-06-25T03:10:56.106Z,23.56
2018-06-25T03:13:29.652Z,23.68
2018-06-25T03:16:02.267Z,23.65
2018-06-25T03:18:35.194Z,23.64
2018-06-25T03:21:07.325Z,23.65
2018-06-25T03:23:40.015Z,23.72
2018-06-25T03:26:12.633Z,23.71
2018-06-25T03:28:44.077Z,23.83
2018-06-25T03:31:18.112Z,23.94
2018-06-25T03:33:51.604Z,23.85
2018-06-25T03:36:25.836Z,23.52
2018-06-25T03:39:01.888Z,23.75
2018-06-25T03:41:34.234Z,23.85
2018-06-25T03:44:09.456Z,23.97
2018-06-25T03:46:53.468Z,24.11
2018-06-25T03:49:31.927Z,24.28
2018-06-25T03:52:13.913Z,24.48
2018-06-25T03:54:55.333Z,24.30
2018-06-25T03:57:28.886Z,24.47
2018-06-25T04:00:05.492Z,24.38
2018-06-25T04:02:45.245Z,24.31
2018-06-25T04:05:20.215Z,24.26
2018-06-25T04:07:54.857Z,24.75
2018-06-25T04:10:26.710Z,24.59
2018-06-25T04:12:58.405Z,24.56
2018-06-25T04:15:30.109Z,24.59
2018-06-25T04:18:01.977Z,24.69
2018-06-25T04:20:34.454Z,24.48
2018-06-25T04:23:08.513Z,24.71
2018-06-25T04:25:41.109Z,24.66
2018-06-25T04:28:13.329Z,24.72
2018-06-25T04:30:48.463Z,24.77
2018-06-25T04:33:20.901Z,25.05
2018-06-25T04:35:53.277Z,25.00
2018-06-25T04:38:25.272Z,24.95
2018-06-25T04:40:58.135Z,24.99
2018-06-25T04:43:29.566Z,25.04
2018-06-25T04:46:02.888Z,24.93
2018-06-25T04:48:39.476Z,24.94
2018-06-25T04:51:10.896Z,24.96
2018-06-25T04:53:42.778Z,24.94
2018-06-25T04:56:17.771Z,24.86
2018-06-25T04:58:51.912Z,25.08
2018-06-25T05:01:23.297Z,25.22
2018-06-25T05:03:56.682Z,25.49
2018-06-25T05:06:29.971Z,25.37
2018-06-25T05:09:01.921Z,25.28
2018-06-25T05:11:32.996Z,25.46
2018-06-25T05:14:08.820Z,25.45
2018-06-25T05:16:41.515Z,25.37
2018-06-25T05:19:17.411Z,25.45
2018-06-25T05:21:51.425Z,25.54
2018-06-25T05:24:26.559Z,25.61
2018-06-25T05:27:00.161Z,25.78
2018-06-25T05:29:34.046Z,25.87
2018-06-25T05:32:08.463Z,25.87
2018-06-25T05:34:41.752Z,26.07
2018-06-25T05:37:15.025Z,26.08
2018-06-25T05:39:48.536Z,26.06
2018-06-25T05:42:24.031Z,26.23
2018-06-25T05:44:57.465Z,26.22
2018-06-25T05:47:31.964Z,26.15
2018-06-25T05:50:06.849Z,26.07
2018-06-25T05:52:41.797Z,25.92
2018-06-25T05:55:15.253Z,25.93
2018-06-25T05:57:49.397Z,25.94
2018-06-25T06:00:23.917Z,26.13
2018-06-25T06:02:59.520Z,26.34
2018-06-25T06:05:33.777Z,26.68
2018-06-25T06:08:09.284Z,26.76
2018-06-25T06:10:43.412Z,27.05
2018-06-25T06:13:16.935Z,27.26
2018-06-25T06:15:51.128Z,27.40
2018-06-25T06:18:25.432Z,27.47
2018-06-25T06:20:59.545Z,27.59
2018-06-25T06:23:34.675Z,27.65
2018-06-25T06:26:08.299Z,27.59
2018-06-25T06:28:44.969Z,27.63
2018-06-25T06:31:19.438Z,27.53
2018-06-25T06:33:54.384Z,27.39
2018-06-25T06:36:34.008Z,27.53
2018-06-25T06:39:27.271Z,27.79
2018-06-25T06:42:00.469Z,27.80
2018-06-25T06:44:33.630Z,28.22
2018-06-25T06:47:06.892Z,28.47
2018-06-25T06:49:40.181Z,28.21
2018-06-25T06:52:14.611Z,28.20
2018-06-25T06:54:50.402Z,27.93
2018-06-25T06:57:24.988Z,27.61
2018-06-25T06:59:58.485Z,27.30
2018-06-25T07:02:32.073Z,27.19
2018-06-25T07:05:08.335Z,26.85
2018-06-25T07:07:42.270Z,27.33
2018-06-25T07:10:39.645Z,27.45
2018-06-25T07:13:14.121Z,27.32
2018-06-25T07:15:49.337Z,27.03
2018-06-25T07:18:23.784Z,27.04
2018-06-25T07:20:57.528Z,27.16
2018-06-25T07:23:32.256Z,27.14
2018-06-25T07:26:06.145Z,26.98
2018-06-25T07:28:47.365Z,26.99
2018-06-25T07:31:26.546Z,26.92
2018-06-25T07:34:12.859Z,27.12
2018-06-25T07:36:50.257Z,27.13
2018-06-25T07:39:26.037Z,27.25
2018-06-25T07:41:59.873Z,27.53
2018-06-25T07:44:35.914Z,27.65
2018-06-25T07:47:12.145Z,27.50
2018-06-25T07:49:46.104Z,27.57
2018-06-25T07:52:24.963Z,27.38
2018-06-25T07:54:58.707Z,27.48
2018-06-25T07:57:33.732Z,27.55
2018-06-25T08:00:13.820Z,27.57
2018-06-25T08:02:47.447Z,27.75
2018-06-25T08:05:21.424Z,28.10
2018-06-25T08:07:55.748Z,28.07
2018-06-25T08:10:29.425Z,28.19
2018-06-25T08:13:06.710Z,28.19
2018-06-25T08:15:40.119Z,28.27
2018-06-25T08:18:13.975Z,28.36
2018-06-25T08:20:48.683Z,28.38
2018-06-25T08:23:23.706Z,28.57
2018-06-25T08:26:00.166Z,28.79
2018-06-25T08:28:36.751Z,28.77
2018-06-25T08:31:11.507Z,29.14
2018-06-25T08:33:44.864Z,29.53
2018-06-25T08:36:19.415Z,29.63
2018-06-25T08:38:53.675Z,29.68
2018-06-25T08:41:27.720Z,29.68
2018-06-25T08:44:01.075Z,29.88
2018-06-25T08:49:06.674Z,30.01
2018-06-25T08:51:39.858Z,29.98
2018-06-25T08:54:14.335Z,30.26
2018-06-25T08:56:47.675Z,30.58
2018-06-25T08:59:21.287Z,30.74
2018-06-25T09:01:55.329Z,31.16
2018-06-25T09:04:30.725Z,31.50
2018-06-25T09:07:11.434Z,31.92
2018-06-25T09:09:47.238Z,32.83
2018-06-25T09:12:22.412Z,33.72
2018-06-25T09:14:59.200Z,33.35
2018-06-25T09:17:33.183Z,33.18
2018-06-25T09:20:10.288Z,33.06
2018-06-25T09:22:43.613Z,32.58
2018-06-25T09:25:18.564Z,32.18
2018-06-25T09:27:53.888Z,31.90
2018-06-25T09:30:34.597Z,32.06
2018-06-25T09:33:10.589Z,32.43
2018-06-25T09:35:46.286Z,32.61
2018-06-25T09:38:25.322Z,32.74
2018-06-25T09:40:58.767Z,32.76
2018-06-25T09:43:41.732Z,33.43
2018-06-25T09:46:19.479Z,34.22
2018-06-25T09:48:57.511Z,34.30
2018-06-25T09:51:32.190Z,34.02
2018-06-25T09:54:06.448Z,33.65
2018-06-25T09:56:41.800Z,32.98
2018-06-25T09:59:17.247Z,32.37
2018-06-25T10:01:52.208Z,32.09
2018-06-25T10:04:25.753Z,32.24
2018-06-25T10:07:02.974Z,32.55
2018-06-25T10:09:39.685Z,33.01
2018-06-25T10:12:13.005Z,33.21
2018-06-25T10:14:46.455Z,33.10
2018-06-25T10:17:20.305Z,33.12
2018-06-25T10:19:58.616Z,33.21
2018-06-25T10:22:32.083Z,33.20
2018-06-25T10:25:08.820Z,33.39
2018-06-25T10:27:46.056Z,33.84
2018-06-25T10:30:24.636Z,33.81
2018-06-25T10:33:40.415Z,33.67
2018-06-25T10:36:18.202Z,33.22
2018-06-25T10:38:59.128Z,33.58
2018-06-25T10:41:42.621Z,33.94
2018-06-25T10:44:15.972Z,34.41
2018-06-25T10:46:54.059Z,34.45
2018-06-25T10:49:29.504Z,34.63
2018-06-25T10:52:05.471Z,33.98
2018-06-25T10:54:40.987Z,33.72
2018-06-25T10:57:16.386Z,33.53
2018-06-25T10:59:53.405Z,33.52
2018-06-25T11:02:27.172Z,33.63
2018-06-25T11:05:06.173Z,33.90
2018-06-25T11:07:45.834Z,33.77
2018-06-25T11:10:20.688Z,33.83
2018-06-25T11:13:00.390Z,34.13
2018-06-25T11:15:39.660Z,34.61
2018-06-25T11:18:15.300Z,34.96
2018-06-25T11:20:48.612Z,34.61
2018-06-25T11:23:24.121Z,34.62
2018-06-25T11:26:01.492Z,33.86
2018-06-25T11:28:41.095Z,33.42
2018-06-25T11:31:16.022Z,32.48
2018-06-25T11:33:56.230Z,33.21
2018-06-25T11:36:30.971Z,33.87
2018-06-25T11:39:08.624Z,34.28
2018-06-25T11:41:44.381Z,34.66
2018-06-25T11:44:22.862Z,34.94
2018-06-25T11:46:56.224Z,35.01
2018-06-25T11:49:31.338Z,34.85
2018-06-25T11:52:09.888Z,34.58
2018-06-25T11:54:43.446Z,34.04
2018-06-25T11:57:17.528Z,34.45
2018-06-25T11:59:51.699Z,34.43
2018-06-25T12:02:27.150Z,34.25
2018-06-25T12:05:02.166Z,34.02
2018-06-25T12:07:36.509Z,33.36
2018-06-25T12:10:14.904Z,33.60
2018-06-25T12:12:48.257Z,34.18
2018-06-25T12:15:30.312Z,34.06
2018-06-25T12:18:05.058Z,34.45
2018-06-25T12:20:40.220Z,34.40
2018-06-25T12:23:15.256Z,34.54
2018-06-25T12:25:50.327Z,34.58
2018-06-25T12:28:26.040Z,35.14
2018-06-25T12:31:00.397Z,35.57
2018-06-25T12:33:35.661Z,35.48
2018-06-25T12:36:15.050Z,35.13
2018-06-25T12:38:50.461Z,35.19
2018-06-25T12:41:30.468Z,35.84
2018-06-25T12:44:06.614Z,36.04
2018-06-25T12:46:42.774Z,35.86
2018-06-25T12:49:17.516Z,36.01
2018-06-25T12:51:52.812Z,36.40
2018-06-25T12:54:28.909Z,36.20
2018-06-25T12:57:04.408Z,36.15
2018-06-25T12:59:38.833Z,36.14
2018-06-25T13:02:15.284Z,36.02
2018-06-25T13:04:49.558Z,36.14
2018-06-25T13:07:24.586Z,36.24
2018-06-25T13:09:58.663Z,35.98
2018-06-25T13:12:34.969Z,35.96
2018-06-25T13:15:11.211Z,36.24
2018-06-25T13:17:48.175Z,36.63
2018-06-25T13:20:24.330Z,36.99
2018-06-25T13:22:58.894Z,37.36
2018-06-25T13:25:47.986Z,37.15
2018-06-25T13:28:29.954Z,36.99
2018-06-25T13:31:09.510Z,36.99
2018-06-25T13:33:45.314Z,37.07
2018-06-25T13:36:20.599Z,37.68
2018-06-25T13:38:56.069Z,38.31
2018-06-25T13:41:36.242Z,38.63
2018-06-25T13:44:11.188Z,38.96
2018-06-25T13:46:45.535Z,38.98
2018-06-25T13:49:22.768Z,38.55
2018-06-25T13:52:02.749Z,38.28
2018-06-25T13:54:46.433Z,37.86
2018-06-25T13:57:47.368Z,37.63
2018-06-25T14:03:11.013Z,36.71
2018-06-25T14:05:48.280Z,36.62
2018-06-25T14:08:24.490Z,36.77
2018-06-25T14:10:59.540Z,36.64
2018-06-25T14:13:36.821Z,36.42
2018-06-25T14:16:19.266Z,37.11
2018-06-25T14:19:07.495Z,38.02
2018-06-25T14:21:43.340Z,38.17
2018-06-25T14:24:22.848Z,38.17
2018-06-25T14:27:00.266Z,38.44
2018-06-25T14:29:36.136Z,38.48
2018-06-25T14:32:15.236Z,38.64
2018-06-25T14:34:53.787Z,38.56
2018-06-25T14:37:29.162Z,38.92
2018-06-25T14:40:05.866Z,38.50
2018-06-25T14:42:40.929Z,37.99
2018-06-25T14:45:17.528Z,37.37
2018-06-25T14:47:54.429Z,37.30
2018-06-25T14:50:36.461Z,37.41
2018-06-25T14:53:13.968Z,37.82
2018-06-25T14:55:49.580Z,37.70
2018-06-25T14:58:27.759Z,37.46
2018-06-25T15:01:01.277Z,37.21
2018-06-25T15:03:35.581Z,36.74
2018-06-25T15:06:09.661Z,36.52
2018-06-25T15:08:44.010Z,36.40
2018-06-25T15:11:19.044Z,36.44
2018-06-25T15:16:18.956Z,35.72
2018-06-25T15:18:59.306Z,35.51
2018-06-25T15:21:34.486Z,35.70
2018-06-25T15:24:12.397Z,35.61
2018-06-25T15:26:46.210Z,35.48
2018-06-25T15:29:23.101Z,35.49
2018-06-25T15:31:56.894Z,35.85
2018-06-25T15:34:30.741Z,36.35
2018-06-25T15:37:04.773Z,36.49
2018-06-25T15:39:38.290Z,36.25
2018-06-25T15:42:14.056Z,35.90
2018-06-25T15:44:50.037Z,36.01
2018-06-25T15:47:25.309Z,36.25
2018-06-25T15:50:02.139Z,36.16
2018-06-25T15:52:37.238Z,35.83
2018-06-25T15:55:12.941Z,35.53
2018-06-25T15:57:46.595Z,35.23
2018-06-25T16:00:19.922Z,35.06
2018-06-25T16:02:53.757Z,34.89
2018-06-25T16:05:27.754Z,34.96
2018-06-25T16:08:01.650Z,35.03
2018-06-25T16:10:37.134Z,34.74
2018-06-25T16:13:13.509Z,34.67
2018-06-25T16:15:49.468Z,34.62
2018-06-25T16:18:31.063Z,34.47
2018-06-25T16:21:10.910Z,34.76
2018-06-25T16:23:45.352Z,35.05
2018-06-25T16:26:36.204Z,35.19
2018-06-25T16:30:25.663Z,35.32
2018-06-25T16:33:05.190Z,35.16
2018-06-25T16:35:45.469Z,34.71
2018-06-25T16:38:25.600Z,34.57
2018-06-25T16:41:01.661Z,34.46
2018-06-25T16:43:39.297Z,34.18
2018-06-25T16:46:14.849Z,33.84
2018-06-25T16:48:48.479Z,33.64
2018-06-25T16:51:25.096Z,33.40
2018-06-25T16:53:59.192Z,33.14
2018-06-25T16:56:33.676Z,32.98
2018-06-25T16:59:07.736Z,32.81
2018-06-25T17:01:40.983Z,32.58
2018-06-25T17:04:16.748Z,32.21
2018-06-25T17:06:53.350Z,31.96
2018-06-25T17:09:28.541Z,31.65
2018-06-25T17:12:03.517Z,31.59
2018-06-25T17:14:37.143Z,31.82
2018-06-25T17:17:10.569Z,32.24
2018-06-25T17:19:45.923Z,32.20
2018-06-25T17:22:20.813Z,32.01
2018-06-25T17:24:54.523Z,31.95
2018-06-25T17:27:32.410Z,31.98
2018-06-25T17:30:42.359Z,31.69
2018-06-25T17:33:22.814Z,31.47
2018-06-25T17:35:58.877Z,31.60
2018-06-25T17:38:33.818Z,31.41
2018-06-25T17:41:12.290Z,31.20
2018-06-25T17:43:50.247Z,31.08
2018-06-25T17:46:39.099Z,31.28
2018-06-25T17:49:15.224Z,31.62
2018-06-25T17:51:53.318Z,31.80
2018-06-25T17:54:33.551Z,31.95
2018-06-25T17:57:10.475Z,31.80
2018-06-25T17:59:53.335Z,31.93
2018-06-25T18:02:28.540Z,31.95
2018-06-25T18:05:02.579Z,31.82
2018-06-25T18:07:38.478Z,31.37
2018-06-25T18:10:16.504Z,30.92
2018-06-25T18:13:05.388Z,30.66
2018-06-25T18:15:46.216Z,30.45
2018-06-25T18:18:21.227Z,30.44
2018-06-25T18:20:59.331Z,30.16
2018-06-25T18:23:33.300Z,30.04
2018-06-25T18:26:07.851Z,29.96
2018-06-25T18:28:42.942Z,29.83
2018-06-25T18:31:20.038Z,29.57
2018-06-25T18:33:54.699Z,29.54
2018-06-25T18:36:30.366Z,29.63
2018-06-25T18:39:07.640Z,29.49
2018-06-25T18:41:42.638Z,29.29
2018-06-25T18:44:20.253Z,29.20
2018-06-25T18:46:56.010Z,29.05
2018-06-25T18:49:31.887Z,29.02
2018-06-25T18:52:07.225Z,29.17
2018-06-25T18:54:40.501Z,29.11
2018-06-25T18:57:15.758Z,28.96
2018-06-25T19:02:41.636Z,28.97
2018-06-25T19:05:18.057Z,28.95
2018-06-25T19:10:47.316Z,28.57
2018-06-25T19:13:22.213Z,28.36
2018-06-25T19:15:59.411Z,28.26
2018-06-25T19:18:35.512Z,28.28
2018-06-25T19:21:09.935Z,28.43
2018-06-25T19:23:45.237Z,28.43
2018-06-25T19:26:21.787Z,28.48
2018-06-25T19:28:55.552Z,28.34
2018-06-25T19:31:29.275Z,28.20
2018-06-25T19:34:03.284Z,28.09
2018-06-25T19:36:38.721Z,27.98
2018-06-25T19:39:14.184Z,27.79
2018-06-25T19:41:49.474Z,27.83
2018-06-25T19:44:26.352Z,28.13
2018-06-25T19:47:00.491Z,28.24
2018-06-25T19:49:35.608Z,28.26
2018-06-25T19:52:12.022Z,28.26
2018-06-25T19:54:45.450Z,28.26
2018-06-25T19:57:21.029Z,28.24
2018-06-25T19:59:59.729Z,28.31
2018-06-25T20:02:43.505Z,28.34
2018-06-25T20:08:17.488Z,28.28
2018-06-25T20:10:52.475Z,28.39
2018-06-25T20:13:33.208Z,28.39
2018-06-25T20:16:13.432Z,28.30
2018-06-25T20:18:52.546Z,28.25
2018-06-25T20:21:30.971Z,28.14
2018-06-25T20:24:11.712Z,28.19
2018-06-25T20:26:46.330Z,28.16
2018-06-25T20:32:23.309Z,28.19
2018-06-25T20:35:01.937Z,28.10
2018-06-25T20:37:45.401Z,28.20
2018-06-25T20:43:14.401Z,28.26
2018-06-25T20:45:53.694Z,28.35
2018-06-25T20:51:15.317Z,28.14
2018-06-25T20:53:54.426Z,28.03
2018-06-25T20:56:33.521Z,27.69
2018-06-25T20:59:08.703Z,27.66
2018-06-25T21:11:11.076Z,27.38
2018-06-25T21:54:50.717Z,26.73
2018-06-25T21:57:55.899Z,26.82
2018-06-25T22:04:38.473Z,26.72
2018-06-25T22:12:26.513Z,26.98
2018-06-25T22:19:41.669Z,27.26
2018-06-25T22:24:50.507Z,27.35
2018-06-25T22:28:08.054Z,27.30
2018-06-25T22:34:38.416Z,27.35
2018-06-25T22:37:29.547Z,27.27
2018-06-25T22:40:34.707Z,27.32
2018-06-25T22:43:51.477Z,27.23
2018-06-25T22:46:44.198Z,27.24
2018-06-25T22:49:46.586Z,27.31
2018-06-25T22:52:55.937Z,26.79
2018-06-25T23:06:22.750Z,27.58
2018-06-25T23:09:04.396Z,27.67
2018-06-25T23:11:43.380Z,27.76
2018-06-25T23:17:21.217Z,27.77
2018-06-25T23:20:31.852Z,27.79
2018-06-25T23:23:30.899Z,28.03
2018-06-25T23:26:29.318Z,28.09
2018-06-25T23:35:28.799Z,28.28
2018-06-25T23:44:16.107Z,28.25
2018-06-25T23:47:00.418Z,28.38
2018-06-25T23:49:56.926Z,28.24
2018-06-25T23:52:45.948Z,28.28
2018-06-25T23:56:04.552Z,28.32
2018-06-25T23:58:44.594Z,28.31
